Time;durP1;ratioP1;P1;durP2;ratioP2;P2;SDS_P1;SDS_P2;PMS_P1;PMS_P2;Temp;Humidity;BMP_temperature;BMP_pressure;BME280_temperature;BME280_humidity;BME280_pressure;Samples;Min_cycle;Max_cycle;Signal;HPM_P1;HPM_P2
2023/01/04 00:01:15;;;;;;;;;;;;;;;;;;4974966;28;19910;-63
2023/01/04 00:07:14;;;;;;;;;;;;;;;;;;4973931;28;19945;-63
2023/01/04 00:10:01;;;;;;;;;;;;;;;;;;4956044;28;20005;-63
2023/01/04 00:12:51;;;;;;;;;;;;;;;;;;4955769;28;19917;-62
2023/01/04 00:15:35;;;;;;;;;;;;;;;;;;4955868;28;19961;-63
2023/01/04 00:18:41;;;;;;;;;;;;;;;;;;4974662;28;19945;-63
2023/01/04 00:21:40;;;;;;;;;;;;;;;;;;4962369;28;19933;-63
2023/01/04 00:24:07;;;;;;;;;;;;;;;;;;4974491;28;19914;-63
2023/01/04 00:26:37;;;;;;;;;;;;;;;;;;4974268;28;19910;-63
2023/01/04 00:29:20;;;;;;;;;;;;;;;;;;4977416;28;19920;-63
2023/01/04 00:31:56;;;;;;;;;;;;;;;;;;4961077;28;19965;-62
2023/01/04 00:41:43;;;;;;;;;;;;;;;;;;4977814;28;20001;-63
2023/01/04 00:44:57;;;;;;;;;;;;;;;;;;4965551;28;19917;-62
2023/01/04 00:47:56;;;;;;;;;;;;;;;;;;4965277;28;19937;-63
2023/01/04 00:50:23;;;;;;;;;;;;;;;;;;4977940;28;19957;-63
2023/01/04 00:52:58;;;;;;;;;;;;;;;;;;4977484;28;19910;-64
2023/01/04 00:55:51;;;;;;;;;;;;;;;;;;4964052;28;20373;-64
2023/01/04 00:58:17;;;;;;;;;;;;;;;;;;4977706;28;20001;-64
2023/01/04 01:01:04;;;;;;;;;;;;;;;;;;4975592;28;19910;-64
2023/01/04 01:03:40;;;;;;;;;;;;;;;;;;4989859;28;19910;-64
2023/01/04 01:06:06;;;;;;;;;;;;;;;;;;4977638;28;19917;-64
2023/01/04 01:08:33;;;;;;;;;;;;;;;;;;4977514;28;20286;-64
2023/01/04 01:10:59;;;;;;;;;;;;;;;;;;4992447;28;20377;-64
2023/01/04 01:13:25;;;;;;;;;;;;;;;;;;4977490;28;20378;-64
2023/01/04 01:16:03;;;;;;;;;;;;;;;;;;4992225;28;20354;-64
2023/01/04 01:18:33;;;;;;;;;;;;;;;;;;4977389;28;19910;-64
2023/01/04 01:21:01;;;;;;;;;;;;;;;;;;4977436;28;19934;-64
2023/01/04 01:23:30;;;;;;;;;;;;;;;;;;4976859;28;19910;-64
2023/01/04 01:25:59;;;;;;;;;;;;;;;;;;4976881;28;20413;-64
2023/01/04 01:28:29;;;;;;;;;;;;;;;;;;4976679;28;19957;-63
2023/01/04 01:30:59;;;;;;;;;;;;;;;;;;4991325;28;19910;-63
2023/01/04 01:33:25;;;;;;;;;;;;;;;;;;4977125;28;19916;-63
2023/01/04 01:35:59;;;;;;;;;;;;;;;;;;4976751;28;19973;-63
2023/01/04 01:39:00;;;;;;;;;;;;;;;;;;4976282;28;19910;-63
2023/01/04 01:42:11;;;;;;;;;;;;;;;;;;4976789;28;19969;-63
2023/01/04 01:45:22;;;;;;;;;;;;;;;;;;4976816;28;20049;-63
2023/01/04 01:51:26;;;;;;;;;;;;;;;;;;4976014;28;19961;-64
2023/01/04 01:53:58;;;;;;;;;;;;;;;;;;4977036;28;19918;-64
2023/01/04 02:12:40;;;;;;;;;;;;;;;;;;4976355;28;19906;-64
2023/01/04 02:15:24;;;;;;;;;;;;;;;;;;4976425;28;19917;-64
2023/01/04 02:17:57;;;;;;;;;;;;;;;;;;4958888;28;20266;-64
2023/01/04 02:20:27;;;;;;;;;;;;;;;;;;4976300;28;19913;-63
2023/01/04 02:22:54;;;;;;;;;;;;;;;;;;4976063;28;19941;-64
2023/01/04 02:25:21;;;;;;;;;;;;;;;;;;4975917;28;20401;-64
2023/01/04 02:27:51;;;;;;;;;;;;;;;;;;4976046;28;19961;-63
2023/01/04 02:30:25;;;;;;;;;;;;;;;;;;4976113;28;19917;-64
2023/01/04 03:06:27;;;;;;;;;;;;;;;;;;4975451;28;19964;-62
2023/01/04 03:09:10;;;;;;;;;;;;;;;;;;4975503;28;19910;-63
2023/01/04 03:14:52;;;;;;;;;;;;;;;;;;4975487;28;20038;-64
2023/01/04 03:17:18;;;;;;;;;;;;;;;;;;4975402;28;19992;-63
2023/01/04 03:19:51;;;;;;;;;;;;;;;;;;4958359;28;19917;-63
2023/01/04 03:48:34;;;;;;;;;;;;;;;;;;4975165;28;20281;-64
2023/01/04 03:51:03;;;;;;;;;;;;;;;;;;4975196;28;19910;-64
2023/01/04 03:53:29;;;;;;;;;;;;;;;;;;4975340;28;19917;-63
2023/01/04 03:55:56;;;;;;;;;;;;;;;;;;4975145;28;19938;-63
2023/01/04 03:58:23;;;;;;;;;;;;;;;;;;4975156;28;19953;-64
2023/01/04 04:00:49;;;;;;;;;;;;;;;;;;4975052;28;19906;-63
2023/01/04 04:03:16;;;;;;;;;;;;;;;;;;4998581;28;19941;-63
2023/01/04 04:08:29;;;;;;;;;;;;;;;;;;5000078;28;19913;-64
2023/01/04 04:10:56;;;;;;;;;;;;;;;;;;5017742;28;19992;-63
2023/01/04 04:13:26;;;;;;;;;;;;;;;;;;5017625;28;19959;-63
2023/01/04 04:15:54;;;;;;;;;;;;;;;;;;5017609;28;19944;-63
2023/01/04 04:18:56;;;;;;;;;;;;;;;;;;5017526;28;20357;-62
2023/01/04 04:21:52;;;;;;;;;;;;;;;;;;5017230;28;19924;-62
2023/01/04 04:24:54;;;;;;;;;;;;;;;;;;5017638;28;19999;-63
2023/01/04 04:27:21;;;;;;;;;;;;;;;;;;5016962;28;19921;-63
2023/01/04 04:29:50;;;;;;;;;;;;;;;;;;5000147;28;19955;-63
2023/01/04 04:32:19;;;;;;;;;;;;;;;;;;5016869;28;19909;-63
2023/01/04 04:34:44;;;;;;;;;;;;;;;;;;5017459;28;19916;-63
2023/01/04 04:37:10;;;;;;;;;;;;;;;;;;4999609;28;20305;-63
2023/01/04 04:39:38;;;;;;;;;;;;;;;;;;5016770;28;19913;-63
2023/01/04 04:42:40;;;;;;;;;;;;;;;;;;5017091;28;19913;-62
2023/01/04 04:48:39;;;;;;;;;;;;;;;;;;5016598;28;20423;-62
2023/01/04 04:51:08;;;;;;;;;;;;;;;;;;5017088;28;19916;-62
2023/01/04 04:53:34;;;;;;;;;;;;;;;;;;5017135;28;19909;-63
2023/01/04 04:56:03;;;;;;;;;;;;;;;;;;4999408;28;20280;-63
2023/01/04 04:58:29;;;;;;;;;;;;;;;;;;5016773;28;19905;-63
2023/01/04 05:00:55;;;;;;;;;;;;;;;;;;5016761;28;19988;-64
2023/01/04 05:03:21;;;;;;;;;;;;;;;;;;5005111;28;19918;-63
2023/01/04 05:05:47;;;;;;;;;;;;;;;;;;4996849;28;20357;-63
2023/01/04 05:08:14;;;;;;;;;;;;;;;;;;4979636;28;20020;-63
2023/01/04 05:10:45;;;;;;;;;;;;;;;;;;4979283;28;19932;-63
2023/01/04 05:13:41;;;;;;;;;;;;;;;;;;4978115;28;19961;-63
2023/01/04 05:16:10;;;;;;;;;;;;;;;;;;4978799;28;19953;-63
2023/01/04 05:18:36;;;;;;;;;;;;;;;;;;4979228;28;20366;-62
2023/01/04 05:21:05;;;;;;;;;;;;;;;;;;4996834;28;19906;-63
2023/01/04 05:23:31;;;;;;;;;;;;;;;;;;4979272;28;20362;-63
2023/01/04 05:25:57;;;;;;;;;;;;;;;;;;4996468;28;20310;-62
2023/01/04 05:28:35;;;;;;;;;;;;;;;;;;4994104;28;19917;-63
2023/01/04 05:44:24;;;;;;;;;;;;;;;;;;4993872;28;19915;-63
2023/01/04 05:47:29;;;;;;;;;;;;;;;;;;4981826;28;19968;-63
2023/01/04 05:50:06;;;;;;;;;;;;;;;;;;4977386;28;19916;-63
2023/01/04 05:52:38;;;;;;;;;;;;;;;;;;4977252;28;20305;-63
2023/01/04 05:55:12;;;;;;;;;;;;;;;;;;4993728;28;20000;-63
2023/01/04 05:57:45;;;;;;;;;;;;;;;;;;4994506;28;20278;-63
2023/01/04 06:07:11;;;;;;;;;;;;;;;;;;4994737;28;19936;-63
2023/01/04 06:09:52;;;;;;;;;;;;;;;;;;4995527;28;19933;-63
2023/01/04 06:12:24;;;;;;;;;;;;;;;;;;4977881;28;20000;-62
2023/01/04 06:15:04;;;;;;;;;;;;;;;;;;4979296;28;19956;-62
2023/01/04 06:20:54;;;;;;;;;;;;;;;;;;4993786;28;20382;-62
2023/01/04 06:23:33;;;;;;;;;;;;;;;;;;4976813;28;19916;-62
2023/01/04 06:26:04;;;;;;;;;;;;;;;;;;4975891;28;19909;-62
2023/01/04 06:28:43;;;;;;;;;;;;;;;;;;5012554;28;19924;-62
2023/01/04 06:31:17;;;;;;;;;;;;;;;;;;5013947;28;20001;-62
2023/01/04 06:33:57;;;;;;;;;;;;;;;;;;5013813;28;19951;-63
2023/01/04 06:36:26;;;;;;;;;;;;;;;;;;5013818;28;20324;-63
2023/01/04 06:38:55;;;;;;;;;;;;;;;;;;5013681;28;20021;-63
2023/01/04 06:41:23;;;;;;;;;;;;;;;;;;5013643;28;20059;-63
2023/01/04 06:43:52;;;;;;;;;;;;;;;;;;5013651;28;19959;-63
2023/01/04 06:46:23;;;;;;;;;;;;;;;;;;5013537;28;19913;-63
2023/01/04 06:48:52;;;;;;;;;;;;;;;;;;5028590;28;20006;-63
2023/01/04 06:51:25;;;;;;;;;;;;;;;;;;5013139;28;19956;-63
2023/01/04 06:54:00;;;;;;;;;;;;;;;;;;5013551;28;19999;-63
2023/01/04 06:56:30;;;;;;;;;;;;;;;;;;5013439;28;20320;-63
2023/01/04 06:58:56;;;;;;;;;;;;;;;;;;5013528;28;20366;-63
2023/01/04 07:01:22;;;;;;;;;;;;;;;;;;5028599;28;19944;-63
2023/01/04 07:03:47;;;;;;;;;;;;;;;;;;5013355;28;20397;-63
2023/01/04 07:06:12;;;;;;;;;;;;;;;;;;5013195;28;19964;-63
2023/01/04 07:08:37;;;;;;;;;;;;;;;;;;5013390;28;20296;-63
2023/01/04 07:11:03;;;;;;;;;;;;;;;;;;5013320;28;20284;-63
2023/01/04 07:13:28;;;;;;;;;;;;;;;;;;5013302;28;19945;-63
2023/01/04 07:15:54;;;;;;;;;;;;;;;;;;5013106;28;19959;-63
2023/01/04 07:18:19;;;;;;;;;;;;;;;;;;5013732;28;19992;-63
2023/01/04 07:20:45;;;;;;;;;;;;;;;;;;5014207;28;19910;-63
2023/01/04 07:23:13;;;;;;;;;;;;;;;;;;5014511;28;19909;-63
2023/01/04 07:25:39;;;;;;;;;;;;;;;;;;5029262;28;19906;-63
2023/01/04 07:28:04;;;;;;;;;;;;;;;;;;5014230;28;20001;-63
2023/01/04 07:30:30;;;;;;;;;;;;;;;;;;5029367;28;19916;-63
2023/01/04 07:33:06;;;;;;;;;;;;;;;;;;5014101;28;19963;-63
2023/01/04 07:35:40;;;;;;;;;;;;;;;;;;5014494;28;19916;-63
2023/01/04 07:38:09;;;;;;;;;;;;;;;;;;5017343;28;19913;-63
2023/01/04 07:40:37;;;;;;;;;;;;;;;;;;5018137;28;19916;-63
2023/01/04 07:43:04;;;;;;;;;;;;;;;;;;5018000;28;20004;-63
2023/01/04 07:45:30;;;;;;;;;;;;;;;;;;5018308;28;20289;-63
2023/01/04 07:48:00;;;;;;;;;;;;;;;;;;5017916;28;20285;-63
2023/01/04 07:50:26;;;;;;;;;;;;;;;;;;5033591;28;19913;-63
2023/01/04 07:52:53;;;;;;;;;;;;;;;;;;5017841;28;19964;-63
2023/01/04 07:55:22;;;;;;;;;;;;;;;;;;5033022;28;19909;-63
2023/01/04 07:57:50;;;;;;;;;;;;;;;;;;5032899;28;19915;-63
2023/01/04 08:00:18;;;;;;;;;;;;;;;;;;5018271;28;20000;-63
2023/01/04 08:02:45;;;;;;;;;;;;;;;;;;5017995;28;19917;-63
2023/01/04 08:05:15;;;;;;;;;;;;;;;;;;5032864;28;20000;-63
2023/01/04 08:07:42;;;;;;;;;;;;;;;;;;5032977;28;19975;-63
2023/01/04 08:10:09;;;;;;;;;;;;;;;;;;5017535;28;20404;-63
2023/01/04 08:12:35;;;;;;;;;;;;;;;;;;5033089;28;20357;-63
2023/01/04 08:15:02;;;;;;;;;;;;;;;;;;5032623;28;19909;-63
2023/01/04 08:17:32;;;;;;;;;;;;;;;;;;4999746;28;19931;-63
2023/01/04 08:20:00;;;;;;;;;;;;;;;;;;5017675;28;20285;-63
2023/01/04 08:22:30;;;;;;;;;;;;;;;;;;5017818;28;20368;-63
2023/01/04 08:24:57;;;;;;;;;;;;;;;;;;5017293;28;19913;-63
2023/01/04 08:27:26;;;;;;;;;;;;;;;;;;5028852;28;19917;-63
2023/01/04 08:29:52;;;;;;;;;;;;;;;;;;4998268;28;20332;-63
2023/01/04 08:32:20;;;;;;;;;;;;;;;;;;4997626;28;19933;-63
2023/01/04 08:34:46;;;;;;;;;;;;;;;;;;4997507;28;20362;-63
2023/01/04 08:37:17;;;;;;;;;;;;;;;;;;5013134;28;19910;-63
2023/01/04 08:39:44;;;;;;;;;;;;;;;;;;4996181;28;19910;-63
2023/01/04 08:42:11;;;;;;;;;;;;;;;;;;4997412;28;19909;-63
2023/01/04 08:44:37;;;;;;;;;;;;;;;;;;4996254;28;19910;-63
2023/01/04 08:47:08;;;;;;;;;;;;;;;;;;4995981;28;19964;-63
2023/01/04 08:49:34;;;;;;;;;;;;;;;;;;4996828;28;19916;-63
2023/01/04 08:52:01;;;;;;;;;;;;;;;;;;5016806;28;19909;-63
2023/01/04 08:54:28;;;;;;;;;;;;;;;;;;5017324;28;19913;-63
2023/01/04 08:56:55;;;;;;;;;;;;;;;;;;5017035;28;19917;-63
2023/01/04 08:59:22;;;;;;;;;;;;;;;;;;5016715;28;19995;-63
2023/01/04 09:01:48;;;;;;;;;;;;;;;;;;5016857;28;19941;-63
2023/01/04 09:04:19;;;;;;;;;;;;;;;;;;5016531;28;20021;-63
2023/01/04 09:06:46;;;;;;;;;;;;;;;;;;5016540;28;19983;-63
2023/01/04 09:09:13;;;;;;;;;;;;;;;;;;5016580;28;20357;-63
2023/01/04 09:11:39;;;;;;;;;;;;;;;;;;5016376;28;19909;-63
2023/01/04 09:14:13;;;;;;;;;;;;;;;;;;5016324;28;19909;-63
2023/01/04 09:16:42;;;;;;;;;;;;;;;;;;5016284;28;19938;-63
2023/01/04 09:19:10;;;;;;;;;;;;;;;;;;5031438;28;19952;-63
2023/01/04 09:21:37;;;;;;;;;;;;;;;;;;5016842;28;19920;-63
2023/01/04 09:24:04;;;;;;;;;;;;;;;;;;5016500;28;19909;-63
2023/01/04 09:26:30;;;;;;;;;;;;;;;;;;5016138;28;19968;-63
2023/01/04 09:28:57;;;;;;;;;;;;;;;;;;5032543;28;20007;-63
2023/01/04 09:31:23;;;;;;;;;;;;;;;;;;5016075;28;19967;-63
2023/01/04 09:33:50;;;;;;;;;;;;;;;;;;5015988;28;20357;-63
2023/01/04 09:36:15;;;;;;;;;;;;;;;;;;5015886;28;19997;-63
2023/01/04 09:38:42;;;;;;;;;;;;;;;;;;5016207;28;19910;-63
2023/01/04 09:41:11;;;;;;;;;;;;;;;;;;5016396;28;19907;-63
2023/01/04 09:43:38;;;;;;;;;;;;;;;;;;5015773;28;19910;-63
2023/01/04 09:46:05;;;;;;;;;;;;;;;;;;5015726;28;19949;-63
2023/01/04 09:48:34;;;;;;;;;;;;;;;;;;5016252;28;19913;-63
2023/01/04 09:51:01;;;;;;;;;;;;;;;;;;5031185;28;19910;-63
2023/01/04 09:53:27;;;;;;;;;;;;;;;;;;5030868;28;20296;-63
2023/01/04 09:55:54;;;;;;;;;;;;;;;;;;5015580;28;20358;-63
2023/01/04 09:58:22;;;;;;;;;;;;;;;;;;5015498;28;19925;-63
2023/01/04 10:00:48;;;;;;;;;;;;;;;;;;5015373;28;19909;-63
2023/01/04 10:03:18;;;;;;;;;;;;;;;;;;5015456;28;19909;-63
2023/01/04 10:05:49;;;;;;;;;;;;;;;;;;5015984;28;19919;-63
2023/01/04 10:08:19;;;;;;;;;;;;;;;;;;5015236;28;19952;-63
2023/01/04 10:10:47;;;;;;;;;;;;;;;;;;5015895;28;19913;-63
2023/01/04 10:13:13;;;;;;;;;;;;;;;;;;5015596;28;19909;-63
2023/01/04 10:15:40;;;;;;;;;;;;;;;;;;5015431;28;19906;-63
2023/01/04 10:18:07;;;;;;;;;;;;;;;;;;5030511;28;19996;-63
2023/01/04 10:20:33;;;;;;;;;;;;;;;;;;5015144;28;19958;-63
2023/01/04 10:23:02;;;;;;;;;;;;;;;;;;5015093;28;20354;-63
2023/01/04 10:25:28;;;;;;;;;;;;;;;;;;5013770;28;19925;-63
2023/01/04 10:27:54;;;;;;;;;;;;;;;;;;5015018;28;19917;-63
2023/01/04 10:30:21;;;;;;;;;;;;;;;;;;5015443;28;20257;-63
2023/01/04 10:32:50;;;;;;;;;;;;;;;;;;5030069;28;19953;-63
2023/01/04 10:35:16;;;;;;;;;;;;;;;;;;5030144;28;19909;-63
2023/01/04 10:37:43;;;;;;;;;;;;;;;;;;5015468;28;20396;-63
2023/01/04 10:40:10;;;;;;;;;;;;;;;;;;5015126;28;20246;-63
2023/01/04 10:42:41;;;;;;;;;;;;;;;;;;5014753;28;19913;-63
2023/01/04 10:45:11;;;;;;;;;;;;;;;;;;5015230;28;19909;-63
2023/01/04 10:47:41;;;;;;;;;;;;;;;;;;5014874;28;19916;-63
2023/01/04 10:50:12;;;;;;;;;;;;;;;;;;5015181;28;19995;-63
2023/01/04 10:52:39;;;;;;;;;;;;;;;;;;5014784;28;19916;-63
2023/01/04 10:55:06;;;;;;;;;;;;;;;;;;5014596;28;19988;-63
2023/01/04 10:57:32;;;;;;;;;;;;;;;;;;5030324;28;19913;-63
2023/01/04 10:59:58;;;;;;;;;;;;;;;;;;5014803;28;19910;-63
2023/01/04 11:02:24;;;;;;;;;;;;;;;;;;5014482;28;19910;-63
2023/01/04 11:04:51;;;;;;;;;;;;;;;;;;5014460;28;19909;-63
2023/01/04 11:07:17;;;;;;;;;;;;;;;;;;5014846;28;19921;-63
2023/01/04 11:09:43;;;;;;;;;;;;;;;;;;5014354;28;19913;-63
2023/01/04 11:12:12;;;;;;;;;;;;;;;;;;5029064;28;20250;-63
2023/01/04 11:14:37;;;;;;;;;;;;;;;;;;5014839;28;20004;-63
2023/01/04 11:17:06;;;;;;;;;;;;;;;;;;5029810;28;20004;-63
2023/01/04 11:19:33;;;;;;;;;;;;;;;;;;5014865;28;19909;-63
2023/01/04 11:21:59;;;;;;;;;;;;;;;;;;5014524;28;19960;-63
2023/01/04 11:24:25;;;;;;;;;;;;;;;;;;5014181;28;20381;-63
2023/01/04 11:26:51;;;;;;;;;;;;;;;;;;5014373;28;20008;-63
2023/01/04 11:29:18;;;;;;;;;;;;;;;;;;5029365;28;19909;-63
2023/01/04 11:31:45;;;;;;;;;;;;;;;;;;5029399;28;20258;-63
2023/01/04 11:34:11;;;;;;;;;;;;;;;;;;5014741;28;19960;-63
2023/01/04 11:36:41;;;;;;;;;;;;;;;;;;5014420;28;19910;-63
2023/01/04 11:39:11;;;;;;;;;;;;;;;;;;5029328;28;20361;-63
2023/01/04 11:41:43;;;;;;;;;;;;;;;;;;5029000;28;20012;-65
2023/01/04 11:44:11;;;;;;;;;;;;;;;;;;5014289;28;19961;-62
2023/01/04 11:46:37;;;;;;;;;;;;;;;;;;5029024;28;19919;-64
2023/01/04 11:49:04;;;;;;;;;;;;;;;;;;5029171;28;19932;-65
2023/01/04 11:51:32;;;;;;;;;;;;;;;;;;5013886;28;20374;-62
2023/01/04 11:53:58;;;;;;;;;;;;;;;;;;5013918;28;19942;-63
2023/01/04 11:56:28;;;;;;;;;;;;;;;;;;5013761;28;19921;-63
2023/01/04 11:58:56;;;;;;;;;;;;;;;;;;5014311;28;19999;-63
2023/01/04 12:01:27;;;;;;;;;;;;;;;;;;5013844;28;20389;-63
2023/01/04 12:03:52;;;;;;;;;;;;;;;;;;5029183;28;20281;-63
2023/01/04 12:06:18;;;;;;;;;;;;;;;;;;5013816;28;19916;-63
2023/01/04 12:08:46;;;;;;;;;;;;;;;;;;5029079;28;19913;-63
2023/01/04 12:11:11;;;;;;;;;;;;;;;;;;5014168;28;19951;-63
2023/01/04 12:13:38;;;;;;;;;;;;;;;;;;5014346;28;19953;-63
2023/01/04 12:16:03;;;;;;;;;;;;;;;;;;5029096;28;19909;-63
2023/01/04 12:18:30;;;;;;;;;;;;;;;;;;5014361;28;19909;-63
2023/01/04 12:20:55;;;;;;;;;;;;;;;;;;5014041;28;20304;-63
2023/01/04 12:23:22;;;;;;;;;;;;;;;;;;5029022;28;19915;-63
2023/01/04 12:25:50;;;;;;;;;;;;;;;;;;5032512;28;19956;-63
2023/01/04 12:28:16;;;;;;;;;;;;;;;;;;5016851;28;19964;-63
2023/01/04 12:30:43;;;;;;;;;;;;;;;;;;5017178;28;20321;-63
2023/01/04 12:33:09;;;;;;;;;;;;;;;;;;5017404;28;20346;-63
2023/01/04 12:35:35;;;;;;;;;;;;;;;;;;5017283;28;19916;-63
2023/01/04 12:38:02;;;;;;;;;;;;;;;;;;5017651;28;20380;-62
2023/01/04 12:40:28;;;;;;;;;;;;;;;;;;5017045;28;19913;-62
2023/01/04 12:42:54;;;;;;;;;;;;;;;;;;5017794;28;19931;-63
2023/01/04 12:45:22;;;;;;;;;;;;;;;;;;5017187;28;19909;-63
2023/01/04 12:50:50;;;;;;;;;;;;;;;;;;5005289;28;20381;-63
2023/01/04 12:53:22;;;;;;;;;;;;;;;;;;5016120;28;19968;-63
2023/01/04 12:55:53;;;;;;;;;;;;;;;;;;5015610;28;19916;-63
2023/01/04 12:58:23;;;;;;;;;;;;;;;;;;5015540;28;19909;-63
2023/01/04 13:00:52;;;;;;;;;;;;;;;;;;5030365;28;19965;-63
2023/01/04 13:03:29;;;;;;;;;;;;;;;;;;;;;
2023/01/04 13:06:03;;;;;;;;;;;;;;;;;;5030706;28;19944;-63
2023/01/04 13:08:37;;;;;;;;;;;;;;;;;;5015431;28;20007;-63
2023/01/04 13:11:10;;;;;;;;;;;;;;;;;;5015382;28;19909;-63
2023/01/04 13:13:41;;;;;;;;;;;;;;;;;;5015347;28;19916;-63
2023/01/04 13:16:09;;;;;;;;;;;;;;;;;;5015155;28;19916;-63
2023/01/04 13:18:36;;;;;;;;;;;;;;;;;;5015310;28;19913;-63
2023/01/04 13:21:02;;;;;;;;;;;;;;;;;;5015243;28;19909;-64
2023/01/04 13:23:27;;;;;;;;;;;;;;;;;;5015161;28;20285;-63
2023/01/04 13:25:53;;;;;;;;;;;;;;;;;;5015117;28;19917;-63
2023/01/04 13:28:19;;;;;;;;;;;;;;;;;;5029871;28;19917;-63
2023/01/04 13:30:45;;;;;;;;;;;;;;;;;;5015019;28;19910;-63
2023/01/04 13:33:11;;;;;;;;;;;;;;;;;;5014934;28;20415;-63
2023/01/04 13:35:37;;;;;;;;;;;;;;;;;;5014540;28;19992;-63
2023/01/04 13:38:03;;;;;;;;;;;;;;;;;;5030158;28;19991;-63
2023/01/04 13:40:31;;;;;;;;;;;;;;;;;;5014879;28;19910;-63
2023/01/04 13:42:57;;;;;;;;;;;;;;;;;;5014803;28;19967;-63
2023/01/04 13:45:24;;;;;;;;;;;;;;;;;;5014917;28;19913;-63
2023/01/04 13:47:55;;;;;;;;;;;;;;;;;;5014654;28;19967;-63
2023/01/04 13:50:29;;;;;;;;;;;;;;;;;;5014765;28;20428;-63
2023/01/04 13:53:05;;;;;;;;;;;;;;;;;;5014650;28;19909;-63
2023/01/04 13:55:44;;;;;;;;;;;;;;;;;;5013914;28;20250;-63
2023/01/04 13:58:10;;;;;;;;;;;;;;;;;;5015347;28;19985;-63
2023/01/04 14:00:42;;;;;;;;;;;;;;;;;;5031455;28;19913;-64
2023/01/04 14:03:08;;;;;;;;;;;;;;;;;;5015684;28;19909;-68
2023/01/04 14:05:33;;;;;;;;;;;;;;;;;;5031273;28;19963;-63
2023/01/04 14:07:59;;;;;;;;;;;;;;;;;;5015813;28;19967;-63
2023/01/04 14:10:25;;;;;;;;;;;;;;;;;;5015681;28;19972;-63
2023/01/04 14:12:50;;;;;;;;;;;;;;;;;;5031184;28;20308;-63
2023/01/04 14:15:17;;;;;;;;;;;;;;;;;;5013511;28;20070;-63
2023/01/04 14:17:43;;;;;;;;;;;;;;;;;;5014982;28;20281;-63
2023/01/04 14:30:00;;;;;;;;;;;;;;;;;;5037059;23;19929;-63
2023/01/04 14:32:25;;;;;;;;;;;;;;;;;;5012959;28;19913;-63
2023/01/04 14:34:50;;;;;;;;;;;;;;;;;;5013761;28;19975;-63
2023/01/04 14:37:18;;;;;;;;;;;;;;;;;;5013821;28;19913;-63
2023/01/04 14:39:44;;;;;;;;;;;;;;;;;;5013832;28;20377;-63
2023/01/04 14:42:09;;;;;;;;;;;;;;;;;;5013759;28;19977;-63
2023/01/04 14:44:40;;;;;;;;;;;;;;;;;;5014017;28;19906;-63
2023/01/04 14:47:06;;;;;;;;;;;;;;;;;;5011514;28;19967;-63
2023/01/04 14:49:31;;;;;;;;;;;;;;;;;;5013474;28;19909;-63
2023/01/04 14:51:56;;;;;;;;;;;;;;;;;;5013673;28;19916;-62
2023/01/04 14:54:26;;;;;;;;;;;;;;;;;;5013530;28;19905;-63
2023/01/04 14:56:52;;;;;;;;;;;;;;;;;;5014078;28;19964;-63
2023/01/04 14:59:17;;;;;;;;;;;;;;;;;;5014654;28;19909;-62
2023/01/04 15:01:49;;;;;;;;;;;;;;;;;;5014269;28;19920;-63
2023/01/04 15:04:21;;;;;;;;;;;;;;;;;;5014453;28;19909;-63
2023/01/04 15:06:54;;;;;;;;;;;;;;;;;;5014190;28;19961;-63
2023/01/04 15:09:20;;;;;;;;;;;;;;;;;;5014408;28;19910;-62
2023/01/04 15:11:45;;;;;;;;;;;;;;;;;;5014464;28;19919;-67
2023/01/04 15:14:11;;;;;;;;;;;;;;;;;;5013015;28;19913;-62
2023/01/04 15:16:36;;;;;;;;;;;;;;;;;;5014391;28;20309;-62
2023/01/04 15:19:01;;;;;;;;;;;;;;;;;;5012926;28;20000;-62
2023/01/04 15:21:27;;;;;;;;;;;;;;;;;;5012840;28;19909;-62
2023/01/04 15:23:52;;;;;;;;;;;;;;;;;;4995235;28;19909;-62
2023/01/04 15:26:17;;;;;;;;;;;;;;;;;;4995126;28;19910;-62
2023/01/04 15:28:43;;;;;;;;;;;;;;;;;;5012405;28;19913;-63
2023/01/04 15:31:08;;;;;;;;;;;;;;;;;;4995158;28;19955;-62
2023/01/04 15:33:34;;;;;;;;;;;;;;;;;;5013767;28;19910;-64
2023/01/04 15:35:59;;;;;;;;;;;;;;;;;;5014173;28;19916;-69
2023/01/04 15:38:27;;;;;;;;;;;;;;;;;;4996447;28;19917;-69
2023/01/04 15:40:52;;;;;;;;;;;;;;;;;;5014459;28;19955;-69
2023/01/04 15:43:17;;;;;;;;;;;;;;;;;;4996563;28;19913;-69
2023/01/04 15:45:42;;;;;;;;;;;;;;;;;;5014174;28;19917;-69
2023/01/04 15:48:08;;;;;;;;;;;;;;;;;;4996318;28;20015;-69
2023/01/04 15:50:33;;;;;;;;;;;;;;;;;;5013897;28;19905;-68
2023/01/04 15:52:58;;;;;;;;;;;;;;;;;;5004543;28;20380;-70
2023/01/04 15:55:23;;;;;;;;;;;;;;;;;;5010501;28;19949;-69
2023/01/04 15:57:51;;;;;;;;;;;;;;;;;;5011110;28;19917;-69
2023/01/04 16:00:16;;;;;;;;;;;;;;;;;;5014234;28;19913;-69
2023/01/04 16:02:42;;;;;;;;;;;;;;;;;;5014140;28;19916;-69
2023/01/04 16:05:07;;;;;;;;;;;;;;;;;;5014286;28;19968;-69
2023/01/04 16:07:32;;;;;;;;;;;;;;;;;;5014059;28;20276;-69
2023/01/04 16:09:57;;;;;;;;;;;;;;;;;;5014108;28;19921;-69
2023/01/04 16:12:41;;;;;;;;;;;;;;;;;;5013978;28;19913;-69
2023/01/04 16:15:06;;;;;;;;;;;;;;;;;;5013943;28;19924;-69
2023/01/04 16:17:33;;;;;;;;;;;;;;;;;;4980356;28;19913;-69
2023/01/04 16:19:58;;;;;;;;;;;;;;;;;;5013967;28;19995;-69
2023/01/04 16:22:23;;;;;;;;;;;;;;;;;;5013383;28;20004;-69
2023/01/04 16:24:49;;;;;;;;;;;;;;;;;;5013730;28;19996;-69
2023/01/04 16:27:14;;;;;;;;;;;;;;;;;;5013580;28;20362;-69
2023/01/04 16:29:39;;;;;;;;;;;;;;;;;;5013608;28;19917;-69
2023/01/04 16:32:04;;;;;;;;;;;;;;;;;;5013448;28;20365;-69
2023/01/04 16:34:30;;;;;;;;;;;;;;;;;;5012162;28;19913;-69
2023/01/04 16:36:55;;;;;;;;;;;;;;;;;;5013525;28;19917;-65
2023/01/04 16:39:20;;;;;;;;;;;;;;;;;;5013397;28;19913;-63
2023/01/04 16:41:45;;;;;;;;;;;;;;;;;;5013040;28;19913;-63
2023/01/04 16:44:12;;;;;;;;;;;;;;;;;;5013286;28;19913;-63
2023/01/04 16:46:38;;;;;;;;;;;;;;;;;;5013260;28;20344;-63
2023/01/04 16:49:04;;;;;;;;;;;;;;;;;;5013159;28;19914;-63
2023/01/04 16:51:29;;;;;;;;;;;;;;;;;;5013038;28;19909;-63
2023/01/04 16:53:54;;;;;;;;;;;;;;;;;;5013245;28;19916;-63
2023/01/04 16:56:19;;;;;;;;;;;;;;;;;;5012877;28;20296;-63
2023/01/04 16:58:46;;;;;;;;;;;;;;;;;;5011685;28;19940;-63
2023/01/04 17:01:12;;;;;;;;;;;;;;;;;;5012863;28;19951;-63
2023/01/04 17:03:38;;;;;;;;;;;;;;;;;;5012714;28;20449;-63
2023/01/04 17:06:04;;;;;;;;;;;;;;;;;;5013154;28;19996;-63
2023/01/04 17:08:29;;;;;;;;;;;;;;;;;;5012671;28;19967;-63
2023/01/04 17:10:54;;;;;;;;;;;;;;;;;;5011886;28;19972;-63
2023/01/04 17:13:24;;;;;;;;;;;;;;;;;;5012529;28;19920;-63
2023/01/04 17:15:50;;;;;;;;;;;;;;;;;;5011359;28;19917;-63
2023/01/04 17:18:20;;;;;;;;;;;;;;;;;;5012662;28;19914;-63
2023/01/04 17:20:45;;;;;;;;;;;;;;;;;;5014159;28;20305;-63
2023/01/04 17:23:10;;;;;;;;;;;;;;;;;;5014473;28;19959;-63
2023/01/04 17:25:36;;;;;;;;;;;;;;;;;;5014998;28;19940;-63
2023/01/04 17:28:01;;;;;;;;;;;;;;;;;;5016234;28;19940;-63
2023/01/04 17:30:26;;;;;;;;;;;;;;;;;;5015980;28;19913;-63
2023/01/04 17:32:52;;;;;;;;;;;;;;;;;;5016291;28;19980;-63
2023/01/04 17:35:17;;;;;;;;;;;;;;;;;;5016126;28;19913;-63
2023/01/04 17:37:42;;;;;;;;;;;;;;;;;;5015963;28;19928;-63
2023/01/04 17:40:07;;;;;;;;;;;;;;;;;;5015959;28;19909;-62
2023/01/04 17:42:33;;;;;;;;;;;;;;;;;;5014774;28;20353;-63
2023/01/04 17:44:58;;;;;;;;;;;;;;;;;;5015806;28;19905;-63
2023/01/04 17:47:24;;;;;;;;;;;;;;;;;;5014559;28;19980;-63
2023/01/04 17:49:49;;;;;;;;;;;;;;;;;;5015741;28;19910;-63
2023/01/04 17:52:15;;;;;;;;;;;;;;;;;;5015709;28;20250;-63
2023/01/04 17:54:40;;;;;;;;;;;;;;;;;;5014808;28;19909;-63
2023/01/04 17:57:05;;;;;;;;;;;;;;;;;;5015631;28;19909;-63
2023/01/04 17:59:33;;;;;;;;;;;;;;;;;;5015593;28;19995;-63
2023/01/04 18:01:58;;;;;;;;;;;;;;;;;;5015603;28;20000;-63
2023/01/04 18:04:24;;;;;;;;;;;;;;;;;;5014309;28;20396;-63
2023/01/04 18:06:49;;;;;;;;;;;;;;;;;;5014114;28;19913;-63
2023/01/04 18:09:15;;;;;;;;;;;;;;;;;;5015377;28;19932;-63
2023/01/04 18:11:42;;;;;;;;;;;;;;;;;;5014028;28;19916;-63
2023/01/04 18:14:07;;;;;;;;;;;;;;;;;;5014071;28;19909;-63
2023/01/04 18:16:32;;;;;;;;;;;;;;;;;;5015610;28;19906;-63
2023/01/04 18:18:57;;;;;;;;;;;;;;;;;;5013907;28;19963;-63
2023/01/04 18:21:25;;;;;;;;;;;;;;;;;;5015171;28;19905;-63
2023/01/04 18:23:50;;;;;;;;;;;;;;;;;;5015148;28;19909;-63
2023/01/04 18:26:16;;;;;;;;;;;;;;;;;;5015457;28;19963;-63
2023/01/04 18:28:43;;;;;;;;;;;;;;;;;;5014644;28;19913;-64
2023/01/04 18:31:11;;;;;;;;;;;;;;;;;;5015173;28;20281;-65
2023/01/04 18:33:37;;;;;;;;;;;;;;;;;;5014969;28;19906;-67
2023/01/04 18:36:02;;;;;;;;;;;;;;;;;;4997357;28;19909;-63
2023/01/04 18:38:29;;;;;;;;;;;;;;;;;;5015277;28;19916;-65
2023/01/04 18:40:54;;;;;;;;;;;;;;;;;;5015199;28;20365;-65
2023/01/04 18:43:19;;;;;;;;;;;;;;;;;;5014869;28;19916;-63
2023/01/04 18:45:47;;;;;;;;;;;;;;;;;;4997610;28;19910;-63
2023/01/04 18:48:13;;;;;;;;;;;;;;;;;;5014709;28;19924;-63
2023/01/04 18:50:39;;;;;;;;;;;;;;;;;;5015045;28;20000;-63
2023/01/04 18:53:04;;;;;;;;;;;;;;;;;;4997431;28;19953;-63
2023/01/04 18:55:29;;;;;;;;;;;;;;;;;;5015243;28;20282;-63
2023/01/04 18:57:55;;;;;;;;;;;;;;;;;;4997409;28;19960;-68
2023/01/04 19:00:21;;;;;;;;;;;;;;;;;;5014554;28;19913;-62
2023/01/04 19:02:47;;;;;;;;;;;;;;;;;;5029521;28;19913;-63
2023/01/04 19:05:12;;;;;;;;;;;;;;;;;;5014491;28;20464;-63
2023/01/04 19:07:38;;;;;;;;;;;;;;;;;;5014412;28;20380;-63
2023/01/04 19:10:06;;;;;;;;;;;;;;;;;;5016535;28;19913;-63
2023/01/04 19:12:42;;;;;;;;;;;;;;;;;;5014088;28;20369;-63
2023/01/04 19:18:40;;;;;;;;;;;;;;;;;;5034118;28;19916;-64